sensor_id;sensor_type;location;lat;lon;timestamp;P1;durP1;ratioP1;P2;durP2;ratioP2
29120;SDS011;16191;49.548;8.658;2023-07-31T00:01:15;4.78;;;1.77;;
29120;SDS011;16191;49.548;8.658;2023-07-31T00:03:42;6.60;;;1.60;;
29120;SDS011;16191;49.548;8.658;2023-07-31T00:06:09;4.13;;;1.50;;
29120;SDS011;16191;49.548;8.658;2023-07-31T00:08:35;4.53;;;1.58;;
29120;SDS011;16191;49.548;8.658;2023-07-31T00:11:02;6.65;;;1.63;;
29120;SDS011;16191;49.548;8.658;2023-07-31T00:13:29;4.47;;;1.65;;
29120;SDS011;16191;49.548;8.658;2023-07-31T00:15:55;6.57;;;1.65;;
29120;SDS011;16191;49.548;8.658;2023-07-31T00:18:22;5.13;;;1.70;;
29120;SDS011;16191;49.548;8.658;2023-07-31T00:20:49;11.57;;;2.08;;
29120;SDS011;16191;49.548;8.658;2023-07-31T00:23:16;4.22;;;1.80;;
29120;SDS011;16191;49.548;8.658;2023-07-31T00:25:42;6.03;;;1.80;;
29120;SDS011;16191;49.548;8.658;2023-07-31T00:28:09;4.80;;;1.70;;
29120;SDS011;16191;49.548;8.658;2023-07-31T00:30:36;3.30;;;1.67;;
29120;SDS011;16191;49.548;8.658;2023-07-31T00:33:03;9.32;;;2.28;;
29120;SDS011;16191;49.548;8.658;2023-07-31T00:35:29;6.47;;;2.05;;
29120;SDS011;16191;49.548;8.658;2023-07-31T00:37:58;8.15;;;2.03;;
29120;SDS011;16191;49.548;8.658;2023-07-31T00:40:25;4.78;;;1.50;;
29120;SDS011;16191;49.548;8.658;2023-07-31T00:42:51;8.20;;;2.03;;
29120;SDS011;16191;49.548;8.658;2023-07-31T00:45:18;6.70;;;1.60;;
29120;SDS011;16191;49.548;8.658;2023-07-31T00:47:45;4.00;;;1.60;;
29120;SDS011;16191;49.548;8.658;2023-07-31T00:50:12;7.55;;;1.65;;
29120;SDS011;16191;49.548;8.658;2023-07-31T00:52:40;5.25;;;1.55;;
29120;SDS011;16191;49.548;8.658;2023-07-31T00:55:07;4.95;;;1.75;;
29120;SDS011;16191;49.548;8.658;2023-07-31T00:57:34;6.28;;;1.70;;
29120;SDS011;16191;49.548;8.658;2023-07-31T01:00:04;6.33;;;1.67;;
29120;SDS011;16191;49.548;8.658;2023-07-31T01:02:31;5.00;;;1.52;;
29120;SDS011;16191;49.548;8.658;2023-07-31T01:04:58;5.50;;;1.73;;
29120;SDS011;16191;49.548;8.658;2023-07-31T01:10:18;6.30;;;2.25;;
29120;SDS011;16191;49.548;8.658;2023-07-31T01:12:51;5.25;;;1.67;;
29120;SDS011;16191;49.548;8.658;2023-07-31T01:15:20;6.22;;;1.50;;
29120;SDS011;16191;49.548;8.658;2023-07-31T01:17:47;4.68;;;1.73;;
29120;SDS011;16191;49.548;8.658;2023-07-31T01:20:15;7.88;;;1.90;;
29120;SDS011;16191;49.548;8.658;2023-07-31T01:26:08;10.23;;;1.90;;
29120;SDS011;16191;49.548;8.658;2023-07-31T01:29:11;2.38;;;1.42;;
29120;SDS011;16191;49.548;8.658;2023-07-31T01:32:07;8.35;;;2.25;;
29120;SDS011;16191;49.548;8.658;2023-07-31T01:34:57;5.13;;;2.13;;
29120;SDS011;16191;49.548;8.658;2023-07-31T01:37:45;3.70;;;1.30;;
29120;SDS011;16191;49.548;8.658;2023-07-31T01:40:12;6.10;;;1.63;;
29120;SDS011;16191;49.548;8.658;2023-07-31T01:42:39;5.78;;;1.70;;
29120;SDS011;16191;49.548;8.658;2023-07-31T01:45:06;6.28;;;2.00;;
29120;SDS011;16191;49.548;8.658;2023-07-31T01:47:33;5.00;;;1.80;;
29120;SDS011;16191;49.548;8.658;2023-07-31T01:50:00;6.47;;;1.52;;
29120;SDS011;16191;49.548;8.658;2023-07-31T01:52:26;10.27;;;1.95;;
29120;SDS011;16191;49.548;8.658;2023-07-31T01:54:53;7.00;;;1.80;;
29120;SDS011;16191;49.548;8.658;2023-07-31T01:57:20;8.98;;;2.17;;
29120;SDS011;16191;49.548;8.658;2023-07-31T01:59:46;5.22;;;1.60;;
29120;SDS011;16191;49.548;8.658;2023-07-31T02:02:13;6.22;;;1.70;;
29120;SDS011;16191;49.548;8.658;2023-07-31T02:04:40;6.90;;;2.03;;
29120;SDS011;16191;49.548;8.658;2023-07-31T02:07:07;5.57;;;1.80;;
29120;SDS011;16191;49.548;8.658;2023-07-31T02:09:34;8.80;;;1.98;;
29120;SDS011;16191;49.548;8.658;2023-07-31T02:12:00;6.82;;;1.75;;
29120;SDS011;16191;49.548;8.658;2023-07-31T02:14:27;5.10;;;1.52;;
29120;SDS011;16191;49.548;8.658;2023-07-31T02:16:53;5.90;;;1.75;;
29120;SDS011;16191;49.548;8.658;2023-07-31T02:19:20;6.80;;;1.67;;
29120;SDS011;16191;49.548;8.658;2023-07-31T02:21:47;12.50;;;1.70;;
29120;SDS011;16191;49.548;8.658;2023-07-31T02:24:13;8.68;;;2.28;;
29120;SDS011;16191;49.548;8.658;2023-07-31T02:26:40;6.03;;;2.10;;
29120;SDS011;16191;49.548;8.658;2023-07-31T02:29:08;5.78;;;2.40;;
29120;SDS011;16191;49.548;8.658;2023-07-31T02:31:35;8.35;;;2.08;;
29120;SDS011;16191;49.548;8.658;2023-07-31T02:34:02;7.80;;;2.13;;
29120;SDS011;16191;49.548;8.658;2023-07-31T02:36:28;7.32;;;1.80;;
29120;SDS011;16191;49.548;8.658;2023-07-31T02:38:55;6.03;;;2.13;;
29120;SDS011;16191;49.548;8.658;2023-07-31T02:41:21;6.63;;;2.13;;
29120;SDS011;16191;49.548;8.658;2023-07-31T02:43:48;6.35;;;1.85;;
29120;SDS011;16191;49.548;8.658;2023-07-31T02:46:15;6.43;;;1.63;;
29120;SDS011;16191;49.548;8.658;2023-07-31T02:48:41;6.22;;;1.83;;
29120;SDS011;16191;49.548;8.658;2023-07-31T02:51:08;7.85;;;1.73;;
29120;SDS011;16191;49.548;8.658;2023-07-31T02:53:34;6.30;;;2.30;;
29120;SDS011;16191;49.548;8.658;2023-07-31T02:56:01;4.57;;;1.67;;
29120;SDS011;16191;49.548;8.658;2023-07-31T02:58:28;6.35;;;1.90;;
29120;SDS011;16191;49.548;8.658;2023-07-31T03:00:54;6.35;;;1.80;;
29120;SDS011;16191;49.548;8.658;2023-07-31T03:03:21;7.90;;;1.80;;
29120;SDS011;16191;49.548;8.658;2023-07-31T03:05:48;3.63;;;1.55;;
29120;SDS011;16191;49.548;8.658;2023-07-31T03:08:14;5.65;;;1.90;;
29120;SDS011;16191;49.548;8.658;2023-07-31T03:10:41;3.88;;;1.50;;
29120;SDS011;16191;49.548;8.658;2023-07-31T03:13:08;6.72;;;1.75;;
29120;SDS011;16191;49.548;8.658;2023-07-31T03:15:35;3.72;;;1.70;;
29120;SDS011;16191;49.548;8.658;2023-07-31T03:18:01;6.60;;;1.85;;
29120;SDS011;16191;49.548;8.658;2023-07-31T03:20:28;8.15;;;1.70;;
29120;SDS011;16191;49.548;8.658;2023-07-31T03:22:55;6.28;;;2.05;;
29120;SDS011;16191;49.548;8.658;2023-07-31T03:25:22;9.95;;;1.70;;
29120;SDS011;16191;49.548;8.658;2023-07-31T03:27:49;5.97;;;1.80;;
29120;SDS011;16191;49.548;8.658;2023-07-31T03:30:16;6.93;;;2.28;;
29120;SDS011;16191;49.548;8.658;2023-07-31T03:32:43;7.90;;;2.30;;
29120;SDS011;16191;49.548;8.658;2023-07-31T03:35:09;5.22;;;2.03;;
29120;SDS011;16191;49.548;8.658;2023-07-31T03:37:36;5.32;;;2.00;;
29120;SDS011;16191;49.548;8.658;2023-07-31T03:40:03;6.43;;;1.90;;
29120;SDS011;16191;49.548;8.658;2023-07-31T03:42:31;7.68;;;2.50;;
29120;SDS011;16191;49.548;8.658;2023-07-31T03:44:57;6.40;;;2.13;;
29120;SDS011;16191;49.548;8.658;2023-07-31T03:47:24;9.27;;;2.17;;
29120;SDS011;16191;49.548;8.658;2023-07-31T03:49:51;4.20;;;1.70;;
29120;SDS011;16191;49.548;8.658;2023-07-31T03:52:17;6.45;;;1.83;;
29120;SDS011;16191;49.548;8.658;2023-07-31T03:54:44;6.32;;;1.98;;
29120;SDS011;16191;49.548;8.658;2023-07-31T03:57:11;7.28;;;2.28;;
29120;SDS011;16191;49.548;8.658;2023-07-31T03:59:37;7.35;;;2.13;;
29120;SDS011;16191;49.548;8.658;2023-07-31T04:02:05;7.55;;;2.40;;
29120;SDS011;16191;49.548;8.658;2023-07-31T04:04:32;7.40;;;2.35;;
29120;SDS011;16191;49.548;8.658;2023-07-31T04:07:01;6.63;;;1.90;;
29120;SDS011;16191;49.548;8.658;2023-07-31T04:09:28;6.10;;;2.08;;
29120;SDS011;16191;49.548;8.658;2023-07-31T04:11:55;7.63;;;2.30;;
29120;SDS011;16191;49.548;8.658;2023-07-31T04:14:21;7.68;;;2.20;;
29120;SDS011;16191;49.548;8.658;2023-07-31T04:16:48;8.52;;;2.08;;
29120;SDS011;16191;49.548;8.658;2023-07-31T04:19:15;8.70;;;2.03;;
29120;SDS011;16191;49.548;8.658;2023-07-31T04:21:45;4.60;;;1.75;;
29120;SDS011;16191;49.548;8.658;2023-07-31T04:24:12;7.75;;;1.90;;
29120;SDS011;16191;49.548;8.658;2023-07-31T04:26:39;5.78;;;2.03;;
29120;SDS011;16191;49.548;8.658;2023-07-31T04:29:06;5.65;;;1.80;;
29120;SDS011;16191;49.548;8.658;2023-07-31T04:31:33;6.10;;;2.05;;
29120;SDS011;16191;49.548;8.658;2023-07-31T04:34:03;5.82;;;2.00;;
29120;SDS011;16191;49.548;8.658;2023-07-31T04:36:29;8.77;;;2.40;;
29120;SDS011;16191;49.548;8.658;2023-07-31T04:38:56;6.18;;;2.03;;
29120;SDS011;16191;49.548;8.658;2023-07-31T04:41:23;7.72;;;2.38;;
29120;SDS011;16191;49.548;8.658;2023-07-31T04:43:49;6.82;;;1.85;;
29120;SDS011;16191;49.548;8.658;2023-07-31T04:46:16;8.15;;;2.22;;
29120;SDS011;16191;49.548;8.658;2023-07-31T04:48:43;8.75;;;2.10;;
29120;SDS011;16191;49.548;8.658;2023-07-31T04:51:09;4.95;;;1.90;;
29120;SDS011;16191;49.548;8.658;2023-07-31T04:53:36;7.07;;;2.20;;
29120;SDS011;16191;49.548;8.658;2023-07-31T04:56:03;5.78;;;1.85;;
29120;SDS011;16191;49.548;8.658;2023-07-31T04:58:30;9.50;;;1.95;;
29120;SDS011;16191;49.548;8.658;2023-07-31T05:00:56;7.47;;;1.83;;
29120;SDS011;16191;49.548;8.658;2023-07-31T05:03:23;5.60;;;2.17;;
29120;SDS011;16191;49.548;8.658;2023-07-31T05:05:50;4.20;;;1.85;;
29120;SDS011;16191;49.548;8.658;2023-07-31T05:08:16;6.30;;;2.30;;
29120;SDS011;16191;49.548;8.658;2023-07-31T05:10:44;4.43;;;1.92;;
29120;SDS011;16191;49.548;8.658;2023-07-31T05:13:10;11.55;;;2.25;;
29120;SDS011;16191;49.548;8.658;2023-07-31T05:15:37;5.78;;;1.75;;
29120;SDS011;16191;49.548;8.658;2023-07-31T05:18:04;5.68;;;2.08;;
29120;SDS011;16191;49.548;8.658;2023-07-31T05:20:31;6.10;;;2.10;;
29120;SDS011;16191;49.548;8.658;2023-07-31T05:22:57;6.60;;;2.05;;
29120;SDS011;16191;49.548;8.658;2023-07-31T05:25:24;4.40;;;1.95;;
29120;SDS011;16191;49.548;8.658;2023-07-31T05:27:51;6.30;;;2.33;;
29120;SDS011;16191;49.548;8.658;2023-07-31T05:30:17;6.38;;;1.77;;
29120;SDS011;16191;49.548;8.658;2023-07-31T05:32:44;8.02;;;2.17;;
29120;SDS011;16191;49.548;8.658;2023-07-31T05:35:10;5.03;;;2.30;;
29120;SDS011;16191;49.548;8.658;2023-07-31T05:37:37;4.25;;;1.88;;
29120;SDS011;16191;49.548;8.658;2023-07-31T05:40:04;10.57;;;2.63;;
29120;SDS011;16191;49.548;8.658;2023-07-31T05:42:31;6.28;;;2.13;;
29120;SDS011;16191;49.548;8.658;2023-07-31T05:44:57;6.50;;;2.20;;
29120;SDS011;16191;49.548;8.658;2023-07-31T05:47:24;9.35;;;2.10;;
29120;SDS011;16191;49.548;8.658;2023-07-31T05:49:51;8.07;;;2.22;;
29120;SDS011;16191;49.548;8.658;2023-07-31T05:52:19;10.13;;;2.60;;
29120;SDS011;16191;49.548;8.658;2023-07-31T05:54:45;7.63;;;2.45;;
29120;SDS011;16191;49.548;8.658;2023-07-31T05:57:12;4.97;;;2.20;;
29120;SDS011;16191;49.548;8.658;2023-07-31T05:59:39;9.63;;;2.38;;
29120;SDS011;16191;49.548;8.658;2023-07-31T06:02:05;7.97;;;2.28;;
29120;SDS011;16191;49.548;8.658;2023-07-31T06:04:32;6.10;;;2.03;;
29120;SDS011;16191;49.548;8.658;2023-07-31T06:06:59;6.53;;;2.28;;
29120;SDS011;16191;49.548;8.658;2023-07-31T06:09:26;8.13;;;2.70;;
29120;SDS011;16191;49.548;8.658;2023-07-31T06:11:52;6.75;;;2.45;;
29120;SDS011;16191;49.548;8.658;2023-07-31T06:14:20;8.63;;;2.65;;
29120;SDS011;16191;49.548;8.658;2023-07-31T06:16:46;7.30;;;2.33;;
29120;SDS011;16191;49.548;8.658;2023-07-31T06:19:13;6.40;;;2.35;;
29120;SDS011;16191;49.548;8.658;2023-07-31T06:21:39;4.72;;;2.25;;
29120;SDS011;16191;49.548;8.658;2023-07-31T06:24:08;10.27;;;2.13;;
29120;SDS011;16191;49.548;8.658;2023-07-31T06:26:35;11.02;;;2.72;;
29120;SDS011;16191;49.548;8.658;2023-07-31T06:29:01;6.45;;;2.03;;
29120;SDS011;16191;49.548;8.658;2023-07-31T06:31:28;6.35;;;2.38;;
29120;SDS011;16191;49.548;8.658;2023-07-31T06:33:54;7.45;;;2.53;;
29120;SDS011;16191;49.548;8.658;2023-07-31T06:36:21;6.80;;;2.00;;
29120;SDS011;16191;49.548;8.658;2023-07-31T06:38:48;6.63;;;1.95;;
29120;SDS011;16191;49.548;8.658;2023-07-31T06:41:14;5.75;;;2.17;;
29120;SDS011;16191;49.548;8.658;2023-07-31T06:43:41;7.38;;;2.13;;
29120;SDS011;16191;49.548;8.658;2023-07-31T06:46:08;7.32;;;2.15;;
29120;SDS011;16191;49.548;8.658;2023-07-31T06:48:36;6.90;;;1.98;;
29120;SDS011;16191;49.548;8.658;2023-07-31T06:51:03;7.00;;;2.38;;
29120;SDS011;16191;49.548;8.658;2023-07-31T06:53:30;5.70;;;2.05;;
29120;SDS011;16191;49.548;8.658;2023-07-31T06:55:57;9.00;;;2.25;;
29120;SDS011;16191;49.548;8.658;2023-07-31T06:58:23;5.18;;;2.10;;
29120;SDS011;16191;49.548;8.658;2023-07-31T07:00:50;5.88;;;1.83;;
29120;SDS011;16191;49.548;8.658;2023-07-31T07:03:17;4.75;;;1.98;;
29120;SDS011;16191;49.548;8.658;2023-07-31T07:05:45;6.05;;;2.20;;
29120;SDS011;16191;49.548;8.658;2023-07-31T07:08:11;6.80;;;2.00;;
29120;SDS011;16191;49.548;8.658;2023-07-31T07:10:38;5.90;;;2.30;;
29120;SDS011;16191;49.548;8.658;2023-07-31T07:13:04;7.20;;;2.35;;
29120;SDS011;16191;49.548;8.658;2023-07-31T07:15:31;6.63;;;2.00;;
29120;SDS011;16191;49.548;8.658;2023-07-31T07:17:57;6.82;;;2.10;;
29120;SDS011;16191;49.548;8.658;2023-07-31T07:20:24;8.30;;;2.38;;
29120;SDS011;16191;49.548;8.658;2023-07-31T07:22:50;5.95;;;1.83;;
29120;SDS011;16191;49.548;8.658;2023-07-31T07:25:17;6.95;;;1.92;;
29120;SDS011;16191;49.548;8.658;2023-07-31T07:27:43;12.70;;;2.47;;
29120;SDS011;16191;49.548;8.658;2023-07-31T07:30:10;6.53;;;2.17;;
29120;SDS011;16191;49.548;8.658;2023-07-31T07:32:37;5.50;;;2.28;;
29120;SDS011;16191;49.548;8.658;2023-07-31T07:35:04;5.80;;;2.45;;
29120;SDS011;16191;49.548;8.658;2023-07-31T07:37:31;5.15;;;1.92;;
29120;SDS011;16191;49.548;8.658;2023-07-31T07:39:59;7.13;;;2.25;;
29120;SDS011;16191;49.548;8.658;2023-07-31T07:42:25;6.88;;;2.38;;
29120;SDS011;16191;49.548;8.658;2023-07-31T07:44:52;9.68;;;2.33;;
29120;SDS011;16191;49.548;8.658;2023-07-31T07:47:19;9.30;;;2.47;;
29120;SDS011;16191;49.548;8.658;2023-07-31T07:49:45;12.43;;;2.40;;
29120;SDS011;16191;49.548;8.658;2023-07-31T07:52:18;4.97;;;2.40;;
29120;SDS011;16191;49.548;8.658;2023-07-31T07:54:45;6.97;;;2.10;;
29120;SDS011;16191;49.548;8.658;2023-07-31T07:57:11;8.70;;;2.33;;
29120;SDS011;16191;49.548;8.658;2023-07-31T07:59:38;10.15;;;2.00;;
29120;SDS011;16191;49.548;8.658;2023-07-31T08:02:05;6.65;;;2.20;;
29120;SDS011;16191;49.548;8.658;2023-07-31T08:04:31;8.90;;;2.30;;
29120;SDS011;16191;49.548;8.658;2023-07-31T08:06:58;12.07;;;2.53;;
29120;SDS011;16191;49.548;8.658;2023-07-31T08:09:24;9.18;;;2.40;;
29120;SDS011;16191;49.548;8.658;2023-07-31T08:11:51;7.32;;;2.20;;
29120;SDS011;16191;49.548;8.658;2023-07-31T08:14:17;6.90;;;2.50;;
29120;SDS011;16191;49.548;8.658;2023-07-31T08:16:44;8.25;;;2.42;;
29120;SDS011;16191;49.548;8.658;2023-07-31T08:19:10;7.32;;;2.00;;
29120;SDS011;16191;49.548;8.658;2023-07-31T08:21:37;5.93;;;2.03;;
29120;SDS011;16191;49.548;8.658;2023-07-31T08:24:04;7.82;;;2.40;;
29120;SDS011;16191;49.548;8.658;2023-07-31T08:26:30;6.70;;;2.25;;
29120;SDS011;16191;49.548;8.658;2023-07-31T08:28:57;11.57;;;2.50;;
29120;SDS011;16191;49.548;8.658;2023-07-31T08:31:24;5.65;;;2.00;;
29120;SDS011;16191;49.548;8.658;2023-07-31T08:33:50;3.97;;;1.98;;
29120;SDS011;16191;49.548;8.658;2023-07-31T08:36:17;5.38;;;2.22;;
29120;SDS011;16191;49.548;8.658;2023-07-31T08:38:45;6.93;;;2.13;;
29120;SDS011;16191;49.548;8.658;2023-07-31T08:41:11;8.18;;;2.45;;
29120;SDS011;16191;49.548;8.658;2023-07-31T08:43:39;4.68;;;1.95;;
29120;SDS011;16191;49.548;8.658;2023-07-31T08:46:07;7.55;;;2.25;;
29120;SDS011;16191;49.548;8.658;2023-07-31T08:48:34;4.95;;;2.40;;
29120;SDS011;16191;49.548;8.658;2023-07-31T08:51:03;5.57;;;2.17;;
29120;SDS011;16191;49.548;8.658;2023-07-31T08:53:29;5.88;;;2.17;;
29120;SDS011;16191;49.548;8.658;2023-07-31T08:55:56;6.78;;;2.80;;
29120;SDS011;16191;49.548;8.658;2023-07-31T08:58:25;8.30;;;2.30;;
29120;SDS011;16191;49.548;8.658;2023-07-31T09:00:57;5.95;;;2.13;;
29120;SDS011;16191;49.548;8.658;2023-07-31T09:03:27;8.20;;;2.38;;
29120;SDS011;16191;49.548;8.658;2023-07-31T09:05:57;7.80;;;2.70;;
29120;SDS011;16191;49.548;8.658;2023-07-31T09:08:26;7.03;;;2.38;;
29120;SDS011;16191;49.548;8.658;2023-07-31T09:10:58;6.88;;;2.35;;
29120;SDS011;16191;49.548;8.658;2023-07-31T09:13:31;9.10;;;2.60;;
29120;SDS011;16191;49.548;8.658;2023-07-31T09:15:58;5.28;;;2.22;;
29120;SDS011;16191;49.548;8.658;2023-07-31T09:18:25;7.15;;;2.35;;
29120;SDS011;16191;49.548;8.658;2023-07-31T09:21:01;8.60;;;2.40;;
29120;SDS011;16191;49.548;8.658;2023-07-31T09:23:45;8.13;;;2.30;;
29120;SDS011;16191;49.548;8.658;2023-07-31T09:26:35;8.88;;;2.47;;
29120;SDS011;16191;49.548;8.658;2023-07-31T09:29:04;5.13;;;2.38;;
29120;SDS011;16191;49.548;8.658;2023-07-31T09:31:39;8.60;;;2.28;;
29120;SDS011;16191;49.548;8.658;2023-07-31T09:34:08;5.40;;;1.95;;
29120;SDS011;16191;49.548;8.658;2023-07-31T09:36:48;7.20;;;2.33;;
29120;SDS011;16191;49.548;8.658;2023-07-31T09:39:16;7.38;;;2.05;;
29120;SDS011;16191;49.548;8.658;2023-07-31T09:41:55;6.18;;;2.25;;
29120;SDS011;16191;49.548;8.658;2023-07-31T09:44:38;5.93;;;2.00;;
29120;SDS011;16191;49.548;8.658;2023-07-31T09:47:08;14.57;;;2.85;;
29120;SDS011;16191;49.548;8.658;2023-07-31T09:49:48;7.65;;;2.45;;
29120;SDS011;16191;49.548;8.658;2023-07-31T09:52:15;6.72;;;2.38;;
29120;SDS011;16191;49.548;8.658;2023-07-31T09:54:41;5.72;;;2.42;;
29120;SDS011;16191;49.548;8.658;2023-07-31T09:57:08;9.13;;;3.08;;
29120;SDS011;16191;49.548;8.658;2023-07-31T09:59:36;5.68;;;2.25;;
29120;SDS011;16191;49.548;8.658;2023-07-31T10:02:03;7.88;;;2.67;;
29120;SDS011;16191;49.548;8.658;2023-07-31T10:04:30;8.07;;;3.03;;
29120;SDS011;16191;49.548;8.658;2023-07-31T10:06:57;5.63;;;2.30;;
29120;SDS011;16191;49.548;8.658;2023-07-31T10:09:27;14.23;;;2.30;;
29120;SDS011;16191;49.548;8.658;2023-07-31T10:12:00;6.40;;;2.55;;
29120;SDS011;16191;49.548;8.658;2023-07-31T10:14:35;9.23;;;2.75;;
29120;SDS011;16191;49.548;8.658;2023-07-31T10:17:02;8.18;;;3.13;;
29120;SDS011;16191;49.548;8.658;2023-07-31T10:19:31;12.40;;;2.92;;
29120;SDS011;16191;49.548;8.658;2023-07-31T10:21:59;6.20;;;2.72;;
29120;SDS011;16191;49.548;8.658;2023-07-31T10:24:26;7.40;;;2.70;;
29120;SDS011;16191;49.548;8.658;2023-07-31T10:26:53;8.77;;;2.58;;
29120;SDS011;16191;49.548;8.658;2023-07-31T10:29:24;9.07;;;2.58;;
29120;SDS011;16191;49.548;8.658;2023-07-31T10:31:52;6.65;;;2.88;;
29120;SDS011;16191;49.548;8.658;2023-07-31T10:34:22;11.02;;;2.78;;
29120;SDS011;16191;49.548;8.658;2023-07-31T10:36:48;7.22;;;2.80;;
29120;SDS011;16191;49.548;8.658;2023-07-31T10:42:12;6.78;;;2.50;;
29120;SDS011;16191;49.548;8.658;2023-07-31T10:44:48;8.95;;;3.10;;
29120;SDS011;16191;49.548;8.658;2023-07-31T10:47:15;8.55;;;2.75;;
29120;SDS011;16191;49.548;8.658;2023-07-31T10:49:46;7.85;;;2.90;;
29120;SDS011;16191;49.548;8.658;2023-07-31T10:52:13;7.18;;;2.58;;
29120;SDS011;16191;49.548;8.658;2023-07-31T10:54:40;6.22;;;2.97;;
29120;SDS011;16191;49.548;8.658;2023-07-31T10:57:22;12.15;;;3.28;;
29120;SDS011;16191;49.548;8.658;2023-07-31T10:59:49;7.55;;;2.80;;
29120;SDS011;16191;49.548;8.658;2023-07-31T11:02:23;10.85;;;2.92;;
29120;SDS011;16191;49.548;8.658;2023-07-31T11:05:05;5.32;;;2.70;;
29120;SDS011;16191;49.548;8.658;2023-07-31T11:07:51;6.28;;;2.55;;
29120;SDS011;16191;49.548;8.658;2023-07-31T11:10:18;8.02;;;2.80;;
29120;SDS011;16191;49.548;8.658;2023-07-31T11:12:45;9.75;;;2.80;;
29120;SDS011;16191;49.548;8.658;2023-07-31T11:15:13;14.20;;;2.55;;
29120;SDS011;16191;49.548;8.658;2023-07-31T11:17:40;11.40;;;3.03;;
29120;SDS011;16191;49.548;8.658;2023-07-31T11:20:07;7.97;;;3.42;;
29120;SDS011;16191;49.548;8.658;2023-07-31T11:22:34;10.93;;;3.05;;
29120;SDS011;16191;49.548;8.658;2023-07-31T11:25:05;13.32;;;3.28;;
29120;SDS011;16191;49.548;8.658;2023-07-31T11:27:38;5.82;;;3.05;;
29120;SDS011;16191;49.548;8.658;2023-07-31T11:30:06;6.63;;;2.55;;
29120;SDS011;16191;49.548;8.658;2023-07-31T11:32:36;7.38;;;2.65;;
29120;SDS011;16191;49.548;8.658;2023-07-31T11:35:03;9.00;;;2.97;;
29120;SDS011;16191;49.548;8.658;2023-07-31T11:37:39;10.77;;;2.75;;
29120;SDS011;16191;49.548;8.658;2023-07-31T11:40:09;6.80;;;2.67;;
29120;SDS011;16191;49.548;8.658;2023-07-31T11:42:36;8.65;;;2.70;;
29120;SDS011;16191;49.548;8.658;2023-07-31T11:45:06;8.38;;;2.58;;
29120;SDS011;16191;49.548;8.658;2023-07-31T11:47:34;10.57;;;2.67;;
29120;SDS011;16191;49.548;8.658;2023-07-31T11:50:03;8.23;;;2.58;;
29120;SDS011;16191;49.548;8.658;2023-07-31T11:52:32;9.77;;;2.80;;
29120;SDS011;16191;49.548;8.658;2023-07-31T11:55:06;7.32;;;2.50;;
29120;SDS011;16191;49.548;8.658;2023-07-31T11:57:37;5.93;;;2.58;;
29120;SDS011;16191;49.548;8.658;2023-07-31T12:00:06;7.40;;;2.78;;
29120;SDS011;16191;49.548;8.658;2023-07-31T12:02:35;6.30;;;2.72;;
29120;SDS011;16191;49.548;8.658;2023-07-31T12:05:02;4.57;;;2.50;;
29120;SDS011;16191;49.548;8.658;2023-07-31T12:07:42;10.15;;;2.72;;
29120;SDS011;16191;49.548;8.658;2023-07-31T12:10:10;6.97;;;2.55;;
29120;SDS011;16191;49.548;8.658;2023-07-31T12:12:37;7.50;;;2.67;;
29120;SDS011;16191;49.548;8.658;2023-07-31T12:15:12;10.88;;;2.70;;
29120;SDS011;16191;49.548;8.658;2023-07-31T12:17:40;6.10;;;2.20;;
29120;SDS011;16191;49.548;8.658;2023-07-31T12:20:07;6.40;;;2.35;;
29120;SDS011;16191;49.548;8.658;2023-07-31T12:22:34;10.57;;;2.53;;
29120;SDS011;16191;49.548;8.658;2023-07-31T12:25:01;6.35;;;2.67;;
29120;SDS011;16191;49.548;8.658;2023-07-31T12:27:32;8.77;;;2.50;;
29120;SDS011;16191;49.548;8.658;2023-07-31T12:29:59;9.15;;;2.53;;
29120;SDS011;16191;49.548;8.658;2023-07-31T12:32:26;8.18;;;2.60;;
29120;SDS011;16191;49.548;8.658;2023-07-31T12:37:25;14.30;;;3.30;;
29120;SDS011;16191;49.548;8.658;2023-07-31T12:39:52;9.30;;;2.92;;
29120;SDS011;16191;49.548;8.658;2023-07-31T12:42:19;6.93;;;2.67;;
29120;SDS011;16191;49.548;8.658;2023-07-31T12:44:45;8.05;;;2.80;;
29120;SDS011;16191;49.548;8.658;2023-07-31T12:47:12;6.43;;;3.28;;
29120;SDS011;16191;49.548;8.658;2023-07-31T12:49:40;7.55;;;2.83;;
29120;SDS011;16191;49.548;8.658;2023-07-31T12:52:07;6.90;;;2.80;;
29120;SDS011;16191;49.548;8.658;2023-07-31T12:54:33;5.90;;;2.40;;
29120;SDS011;16191;49.548;8.658;2023-07-31T12:57:01;13.57;;;2.88;;
29120;SDS011;16191;49.548;8.658;2023-07-31T12:59:28;10.57;;;2.45;;
29120;SDS011;16191;49.548;8.658;2023-07-31T13:01:54;11.13;;;3.00;;
29120;SDS011;16191;49.548;8.658;2023-07-31T13:04:21;4.47;;;2.47;;
29120;SDS011;16191;49.548;8.658;2023-07-31T13:06:48;7.07;;;2.65;;
29120;SDS011;16191;49.548;8.658;2023-07-31T13:09:14;5.68;;;2.70;;
29120;SDS011;16191;49.548;8.658;2023-07-31T13:11:43;9.35;;;2.88;;
29120;SDS011;16191;49.548;8.658;2023-07-31T13:14:10;10.00;;;2.75;;
29120;SDS011;16191;49.548;8.658;2023-07-31T13:16:37;7.70;;;2.70;;
29120;SDS011;16191;49.548;8.658;2023-07-31T13:19:04;6.88;;;2.92;;
29120;SDS011;16191;49.548;8.658;2023-07-31T13:21:30;7.32;;;2.38;;
29120;SDS011;16191;49.548;8.658;2023-07-31T13:23:57;7.65;;;3.15;;
29120;SDS011;16191;49.548;8.658;2023-07-31T13:26:25;10.15;;;3.38;;
29120;SDS011;16191;49.548;8.658;2023-07-31T13:28:52;6.28;;;2.65;;
29120;SDS011;16191;49.548;8.658;2023-07-31T13:31:18;5.47;;;2.55;;
29120;SDS011;16191;49.548;8.658;2023-07-31T13:33:45;6.07;;;2.80;;
29120;SDS011;16191;49.548;8.658;2023-07-31T13:36:12;7.05;;;3.08;;
29120;SDS011;16191;49.548;8.658;2023-07-31T13:38:40;8.38;;;2.72;;
29120;SDS011;16191;49.548;8.658;2023-07-31T13:41:06;6.20;;;2.35;;
29120;SDS011;16191;49.548;8.658;2023-07-31T13:43:33;7.68;;;2.75;;
29120;SDS011;16191;49.548;8.658;2023-07-31T13:46:00;6.80;;;2.80;;
29120;SDS011;16191;49.548;8.658;2023-07-31T13:48:36;6.72;;;2.58;;
29120;SDS011;16191;49.548;8.658;2023-07-31T13:51:03;8.38;;;3.38;;
29120;SDS011;16191;49.548;8.658;2023-07-31T13:53:29;6.72;;;2.95;;
29120;SDS011;16191;49.548;8.658;2023-07-31T13:55:56;5.25;;;2.20;;
29120;SDS011;16191;49.548;8.658;2023-07-31T13:58:22;12.18;;;2.83;;
29120;SDS011;16191;49.548;8.658;2023-07-31T14:00:52;7.57;;;2.47;;
29120;SDS011;16191;49.548;8.658;2023-07-31T14:03:26;4.28;;;2.67;;
29120;SDS011;16191;49.548;8.658;2023-07-31T14:06:15;9.40;;;2.77;;
29120;SDS011;16191;49.548;8.658;2023-07-31T14:08:54;7.05;;;2.88;;
29120;SDS011;16191;49.548;8.658;2023-07-31T14:11:31;6.22;;;2.53;;
29120;SDS011;16191;49.548;8.658;2023-07-31T14:14:11;8.23;;;2.90;;
29120;SDS011;16191;49.548;8.658;2023-07-31T14:16:45;8.40;;;3.17;;
29120;SDS011;16191;49.548;8.658;2023-07-31T14:19:22;6.25;;;2.40;;
29120;SDS011;16191;49.548;8.658;2023-07-31T14:22:07;5.57;;;2.67;;
29120;SDS011;16191;49.548;8.658;2023-07-31T14:24:41;5.47;;;2.92;;
29120;SDS011;16191;49.548;8.658;2023-07-31T14:27:11;5.97;;;2.60;;
29120;SDS011;16191;49.548;8.658;2023-07-31T14:29:38;10.43;;;2.63;;
29120;SDS011;16191;49.548;8.658;2023-07-31T14:32:04;6.57;;;2.63;;
29120;SDS011;16191;49.548;8.658;2023-07-31T14:34:31;10.23;;;2.75;;
29120;SDS011;16191;49.548;8.658;2023-07-31T14:36:58;6.90;;;2.72;;
29120;SDS011;16191;49.548;8.658;2023-07-31T14:39:24;9.45;;;2.53;;
29120;SDS011;16191;49.548;8.658;2023-07-31T14:41:51;6.97;;;2.83;;
29120;SDS011;16191;49.548;8.658;2023-07-31T14:44:17;7.30;;;2.90;;
29120;SDS011;16191;49.548;8.658;2023-07-31T14:46:44;8.75;;;2.60;;
29120;SDS011;16191;49.548;8.658;2023-07-31T14:49:10;8.95;;;2.50;;
29120;SDS011;16191;49.548;8.658;2023-07-31T14:51:37;11.70;;;2.83;;
29120;SDS011;16191;49.548;8.658;2023-07-31T14:54:04;9.82;;;2.92;;
29120;SDS011;16191;49.548;8.658;2023-07-31T14:56:30;6.53;;;2.47;;
29120;SDS011;16191;49.548;8.658;2023-07-31T14:58:57;7.60;;;2.78;;
29120;SDS011;16191;49.548;8.658;2023-07-31T15:01:23;9.23;;;2.67;;
29120;SDS011;16191;49.548;8.658;2023-07-31T15:03:50;10.23;;;2.67;;